createdAt,value
2024-02-16T00:00:21.199Z,54.00
2024-02-16T00:01:21.174Z,54.31
2024-02-16T00:02:21.086Z,54.11
2024-02-16T00:03:21.097Z,52.67
2024-02-16T00:04:21.132Z,52.29
2024-02-16T00:05:21.179Z,51.78
2024-02-16T00:06:21.144Z,53.52
2024-02-16T00:07:21.071Z,52.50
2024-02-16T00:08:21.041Z,53.92
2024-02-16T00:09:21.081Z,54.82
2024-02-16T00:10:20.989Z,55.02
2024-02-16T00:11:21.075Z,55.84
2024-02-16T00:12:21.020Z,56.76
2024-02-16T00:13:20.969Z,56.56
2024-02-16T00:14:20.978Z,55.74
2024-02-16T00:15:20.977Z,55.54
2024-02-16T00:16:20.937Z,55.74
2024-02-16T00:17:20.930Z,56.15
2024-02-16T00:18:21.080Z,55.13
2024-02-16T00:19:21.088Z,55.13
2024-02-16T00:20:20.883Z,54.85
2024-02-16T00:21:20.914Z,52.60
2024-02-16T00:22:20.880Z,52.39
2024-02-16T00:23:20.907Z,52.29
2024-02-16T00:24:20.888Z,52.29
2024-02-16T00:25:20.913Z,51.17
2024-02-16T00:26:20.821Z,52.29
2024-02-16T00:27:20.948Z,52.19
2024-02-16T00:28:20.817Z,52.39
2024-02-16T00:29:20.848Z,52.80
2024-02-16T00:30:20.814Z,52.19
2024-02-16T00:31:20.864Z,51.07
2024-02-16T00:32:20.771Z,50.66
2024-02-16T00:33:20.879Z,50.86
2024-02-16T00:34:20.856Z,50.56
2024-02-16T00:35:20.824Z,50.45
2024-02-16T00:36:20.759Z,49.55
2024-02-16T00:37:20.708Z,50.48
2024-02-16T00:38:20.695Z,50.25
2024-02-16T00:39:20.747Z,50.66
2024-02-16T00:40:20.845Z,49.95
2024-02-16T00:41:20.686Z,49.63
2024-02-16T00:42:20.682Z,50.45
2024-02-16T00:43:20.696Z,50.86
2024-02-16T00:44:20.640Z,50.04
2024-02-16T00:45:20.979Z,50.25
2024-02-16T00:46:20.636Z,50.56
2024-02-16T00:47:20.645Z,51.17
2024-02-16T00:48:20.693Z,51.27
2024-02-16T00:49:20.698Z,51.07
2024-02-16T00:50:20.596Z,52.60
2024-02-16T00:51:20.631Z,52.39
2024-02-16T00:52:20.561Z,53.11
2024-02-16T00:53:20.647Z,53.39
2024-02-16T00:54:20.567Z,53.59
2024-02-16T00:55:20.603Z,53.90
2024-02-16T00:56:20.513Z,54.11
2024-02-16T00:57:20.627Z,54.41
2024-02-16T00:58:20.509Z,53.29
2024-02-16T00:59:20.491Z,52.58
2024-02-16T01:00:20.512Z,51.45
2024-02-16T01:01:20.472Z,51.37
2024-02-16T01:02:20.462Z,50.86
2024-02-16T01:03:20.495Z,48.92
2024-02-16T01:04:20.511Z,50.96
2024-02-16T01:05:20.440Z,51.89
2024-02-16T01:06:20.449Z,51.98
2024-02-16T01:07:20.460Z,51.98
2024-02-16T01:08:20.386Z,51.17
2024-02-16T01:09:20.455Z,50.96
2024-02-16T01:10:20.377Z,50.96
2024-02-16T01:11:20.384Z,50.45
2024-02-16T01:12:20.473Z,49.02
2024-02-16T01:13:20.370Z,48.72
2024-02-16T01:14:20.348Z,48.72
2024-02-16T01:15:20.343Z,48.82
2024-02-16T01:16:20.334Z,49.95
2024-02-16T01:17:20.386Z,49.54
2024-02-16T01:18:20.417Z,49.22
2024-02-16T01:19:20.347Z,49.43
2024-02-16T01:20:20.290Z,49.54
2024-02-16T01:21:20.326Z,50.96
2024-02-16T01:22:20.236Z,50.35
2024-02-16T01:23:20.265Z,51.37
2024-02-16T01:24:20.226Z,52.58
2024-02-16T01:25:20.212Z,51.96
2024-02-16T01:26:20.202Z,51.86
2024-02-16T01:27:20.217Z,52.58
2024-02-16T01:28:20.188Z,52.98
2024-02-16T01:29:20.196Z,53.29
2024-02-16T01:30:20.223Z,54.51
2024-02-16T01:31:20.203Z,54.92
2024-02-16T01:32:20.150Z,53.70
2024-02-16T01:33:20.268Z,54.21
2024-02-16T01:34:20.280Z,55.13
2024-02-16T01:35:20.131Z,55.43
2024-02-16T01:36:20.128Z,56.04
2024-02-16T01:37:20.094Z,56.15
2024-02-16T01:38:20.114Z,56.76
2024-02-16T01:39:20.119Z,57.37
2024-02-16T01:40:20.142Z,57.57
2024-02-16T01:41:20.039Z,58.78
2024-02-16T01:42:20.162Z,58.06
2024-02-16T01:43:20.021Z,58.06
2024-02-16T01:44:20.064Z,59.18
2024-02-16T01:45:20.074Z,59.28
2024-02-16T01:46:20.020Z,59.28
2024-02-16T01:47:20.005Z,58.98
2024-02-16T01:48:20.158Z,58.37
2024-02-16T01:49:20.006Z,58.16
2024-02-16T01:50:19.980Z,59.62
2024-02-16T01:51:19.970Z,59.49
2024-02-16T01:52:19.959Z,59.11
2024-02-16T01:53:19.953Z,58.19
2024-02-16T01:54:20.017Z,58.29
2024-02-16T01:55:19.926Z,58.29
2024-02-16T01:56:19.889Z,58.29
2024-02-16T01:57:19.946Z,58.50
2024-02-16T01:58:19.874Z,57.98
2024-02-16T01:59:19.900Z,57.68
2024-02-16T02:00:20.075Z,57.48
2024-02-16T02:01:19.874Z,56.56
2024-02-16T02:02:19.836Z,55.43
2024-02-16T02:03:19.874Z,55.36
2024-02-16T02:04:19.846Z,55.56
2024-02-16T02:05:20.205Z,55.46
2024-02-16T02:06:19.953Z,55.56
2024-02-16T02:07:19.851Z,55.05
2024-02-16T02:08:19.783Z,54.23
2024-02-16T02:09:19.843Z,53.83
2024-02-16T02:10:19.826Z,53.92
2024-02-16T02:11:19.797Z,54.85
2024-02-16T02:12:19.749Z,56.48
2024-02-16T02:13:19.760Z,56.58
2024-02-16T02:14:20.531Z,56.99
2024-02-16T02:15:19.787Z,57.40
2024-02-16T02:16:19.737Z,57.50
2024-02-16T02:17:19.821Z,58.50
2024-02-16T02:18:19.825Z,58.39
2024-02-16T02:19:19.745Z,59.41
2024-02-16T02:20:19.673Z,59.62
2024-02-16T02:21:19.640Z,59.82
2024-02-16T02:22:19.616Z,59.52
2024-02-16T02:23:19.683Z,57.98
2024-02-16T02:24:19.645Z,57.07
2024-02-16T02:25:19.588Z,58.42
2024-02-16T02:26:19.644Z,58.11
2024-02-16T02:27:19.696Z,57.81
2024-02-16T02:28:19.579Z,56.99
2024-02-16T02:29:19.546Z,56.99
2024-02-16T02:30:19.599Z,56.58
2024-02-16T02:31:19.535Z,56.48
2024-02-16T02:32:19.555Z,57.60
2024-02-16T02:33:19.693Z,57.29
2024-02-16T02:34:19.594Z,57.70
2024-02-16T02:35:19.496Z,58.29
2024-02-16T02:36:19.510Z,58.80
2024-02-16T02:37:19.486Z,59.21
2024-02-16T02:38:19.457Z,59.11
2024-02-16T02:39:19.485Z,59.21
2024-02-16T02:40:19.453Z,58.91
2024-02-16T02:41:19.419Z,59.82
2024-02-16T02:42:19.480Z,60.23
2024-02-16T02:43:19.405Z,60.53
2024-02-16T02:44:19.402Z,60.85
2024-02-16T02:45:19.415Z,60.33
2024-02-16T02:46:19.371Z,60.44
2024-02-16T02:47:19.360Z,59.82
2024-02-16T02:48:19.583Z,60.03
2024-02-16T02:49:19.455Z,60.33
2024-02-16T02:50:19.377Z,59.72
2024-02-16T02:51:19.477Z,59.82
2024-02-16T02:52:19.304Z,60.23
2024-02-16T02:53:19.327Z,59.92
2024-02-16T02:54:19.305Z,60.85
2024-02-16T02:55:19.272Z,60.33
2024-02-16T02:56:19.272Z,59.82
2024-02-16T02:57:19.306Z,59.92
2024-02-16T02:58:19.243Z,59.62
2024-02-16T02:59:19.248Z,59.44
2024-02-16T03:00:19.242Z,59.03
2024-02-16T03:01:19.220Z,58.83
2024-02-16T03:02:19.213Z,58.73
2024-02-16T03:03:19.264Z,59.14
2024-02-16T03:04:19.263Z,58.93
2024-02-16T03:05:19.182Z,59.44
2024-02-16T03:06:19.264Z,59.34
2024-02-16T03:07:19.187Z,59.85
2024-02-16T03:08:19.149Z,59.55
2024-02-16T03:09:19.159Z,60.64
2024-02-16T03:10:19.121Z,59.62
2024-02-16T03:11:19.157Z,60.44
2024-02-16T03:12:19.170Z,60.33
2024-02-16T03:13:19.110Z,60.44
2024-02-16T03:14:19.076Z,60.53
2024-02-16T03:15:19.318Z,60.44
2024-02-16T03:16:19.060Z,60.23
2024-02-16T03:17:19.066Z,60.03
2024-02-16T03:18:19.143Z,60.85
2024-02-16T03:19:19.178Z,60.94
2024-02-16T03:20:19.019Z,61.66
2024-02-16T03:21:19.330Z,60.74
2024-02-16T03:22:18.990Z,61.35
2024-02-16T03:23:19.219Z,62.48
2024-02-16T03:24:19.062Z,62.85
2024-02-16T03:25:18.978Z,63.06
2024-02-16T03:26:18.962Z,64.39
2024-02-16T03:27:19.021Z,64.59
2024-02-16T03:28:18.942Z,65.10
2024-02-16T03:29:18.913Z,65.41
2024-02-16T03:30:18.979Z,65.31
2024-02-16T03:31:18.896Z,64.39
2024-02-16T03:32:18.885Z,65.31
2024-02-16T03:33:19.070Z,65.10
2024-02-16T03:34:19.092Z,66.33
2024-02-16T03:35:18.840Z,66.33
2024-02-16T03:36:18.931Z,66.22
2024-02-16T03:37:18.833Z,66.53
2024-02-16T03:38:18.829Z,66.83
2024-02-16T03:39:18.850Z,66.83
2024-02-16T03:40:18.804Z,66.94
2024-02-16T03:41:18.799Z,66.53
2024-02-16T03:42:18.824Z,66.02
2024-02-16T03:43:18.814Z,65.71
2024-02-16T03:44:18.783Z,65.92
2024-02-16T03:45:18.786Z,66.12
2024-02-16T03:46:18.745Z,66.53
2024-02-16T03:47:18.782Z,66.22
2024-02-16T03:48:18.830Z,65.51
2024-02-16T03:49:18.922Z,65.41
2024-02-16T03:50:18.732Z,64.59
2024-02-16T03:51:18.728Z,64.90
2024-02-16T03:52:18.681Z,64.52
2024-02-16T03:53:18.681Z,63.81
2024-02-16T03:54:18.745Z,64.01
2024-02-16T03:55:18.645Z,63.70
2024-02-16T03:56:18.638Z,63.09
2024-02-16T03:57:18.649Z,63.90
2024-02-16T03:58:18.614Z,63.70
2024-02-16T03:59:18.644Z,62.78
2024-02-16T04:00:18.645Z,63.09
2024-02-16T04:01:18.644Z,63.40
2024-02-16T04:02:18.672Z,62.99
2024-02-16T04:03:18.720Z,62.99
2024-02-16T04:04:18.584Z,63.29
2024-02-16T04:05:18.585Z,62.78
2024-02-16T04:06:18.559Z,62.48
2024-02-16T04:07:18.542Z,63.09
2024-02-16T04:08:18.519Z,62.88
2024-02-16T04:09:18.530Z,62.27
2024-02-16T04:10:18.491Z,62.48
2024-02-16T04:11:18.501Z,63.09
2024-02-16T04:12:18.504Z,62.17
2024-02-16T04:13:18.456Z,62.17
2024-02-16T04:14:18.483Z,62.37
2024-02-16T04:15:18.455Z,63.19
2024-02-16T04:16:18.438Z,62.99
2024-02-16T04:17:18.487Z,63.29
2024-02-16T04:18:18.499Z,64.01
2024-02-16T04:19:18.437Z,63.60
2024-02-16T04:20:18.397Z,63.60
2024-02-16T04:21:18.409Z,64.72
2024-02-16T04:22:18.373Z,63.81
2024-02-16T04:23:18.347Z,63.81
2024-02-16T04:24:18.421Z,64.52
2024-02-16T04:25:18.367Z,64.79
2024-02-16T04:26:18.326Z,65.10
2024-02-16T04:27:18.357Z,65.51
2024-02-16T04:28:18.300Z,64.49
2024-02-16T04:29:18.284Z,64.11
2024-02-16T04:30:18.456Z,64.22
2024-02-16T04:31:18.258Z,63.49
2024-02-16T04:32:18.259Z,63.49
2024-02-16T04:33:19.165Z,62.58
2024-02-16T04:34:18.285Z,61.87
2024-02-16T04:35:18.461Z,61.76
2024-02-16T04:36:18.287Z,61.56
2024-02-16T04:37:18.194Z,62.88
2024-02-16T04:38:18.188Z,63.09
2024-02-16T04:39:18.202Z,63.19
2024-02-16T04:40:18.180Z,63.70
2024-02-16T04:41:18.179Z,64.01
2024-02-16T04:42:18.198Z,64.11
2024-02-16T04:43:18.139Z,63.70
2024-02-16T04:44:18.152Z,63.40
2024-02-16T04:45:18.162Z,63.70
2024-02-16T04:46:18.137Z,64.01
2024-02-16T04:47:18.204Z,63.70
2024-02-16T04:48:18.157Z,63.29
2024-02-16T04:49:18.153Z,63.40
2024-02-16T04:50:18.115Z,63.29
2024-02-16T04:51:18.097Z,62.58
2024-02-16T04:52:18.044Z,62.27
2024-02-16T04:53:18.042Z,61.56
2024-02-16T04:54:18.079Z,61.35
2024-02-16T04:55:18.016Z,60.77
2024-02-16T04:56:18.010Z,59.64
2024-02-16T04:57:18.028Z,59.64
2024-02-16T04:58:18.035Z,59.34
2024-02-16T04:59:18.102Z,58.83
2024-02-16T05:00:18.044Z,58.83
2024-02-16T05:01:17.980Z,58.93
2024-02-16T05:02:17.997Z,58.83
2024-02-16T05:03:17.995Z,58.83
2024-02-16T05:04:18.147Z,59.34
2024-02-16T05:05:17.903Z,59.75
2024-02-16T05:06:17.989Z,59.95
2024-02-16T05:07:18.024Z,60.05
2024-02-16T05:08:17.934Z,59.95
2024-02-16T05:09:18.121Z,59.64
2024-02-16T05:10:17.856Z,59.44
2024-02-16T05:11:17.907Z,59.95
2024-02-16T05:12:17.857Z,59.95
2024-02-16T05:13:17.824Z,60.33
2024-02-16T05:14:17.833Z,60.44
2024-02-16T05:15:17.869Z,60.53
2024-02-16T05:16:17.795Z,60.03
2024-02-16T05:17:17.786Z,60.13
2024-02-16T05:18:17.840Z,60.44
2024-02-16T05:19:17.920Z,59.92
2024-02-16T05:20:18.003Z,60.23
2024-02-16T05:21:17.776Z,60.74
2024-02-16T05:22:17.730Z,60.85
2024-02-16T05:23:17.719Z,60.85
2024-02-16T05:24:17.774Z,61.15
2024-02-16T05:25:17.724Z,61.15
2024-02-16T05:26:17.688Z,61.66
2024-02-16T05:27:17.716Z,61.15
2024-02-16T05:28:17.666Z,61.56
2024-02-16T05:29:17.681Z,61.05
2024-02-16T05:30:17.913Z,60.94
2024-02-16T05:31:17.657Z,61.25
2024-02-16T05:32:17.631Z,61.05
2024-02-16T05:33:17.803Z,61.15
2024-02-16T05:34:17.688Z,60.44
2024-02-16T05:35:17.845Z,59.95
2024-02-16T05:36:17.729Z,59.64
2024-02-16T05:37:17.611Z,59.14
2024-02-16T05:38:17.569Z,58.62
2024-02-16T05:39:17.574Z,57.70
2024-02-16T05:40:17.558Z,57.09
2024-02-16T05:41:17.551Z,56.79
2024-02-16T05:42:17.553Z,56.40
2024-02-16T05:43:17.516Z,55.99
2024-02-16T05:44:17.492Z,55.38
2024-02-16T05:45:17.593Z,55.18
2024-02-16T05:46:17.557Z,54.87
2024-02-16T05:47:17.494Z,54.97
2024-02-16T05:48:17.511Z,54.46
2024-02-16T05:49:17.835Z,54.67
2024-02-16T05:50:17.573Z,54.67
2024-02-16T05:51:17.461Z,54.16
2024-02-16T05:52:17.443Z,54.05
2024-02-16T05:53:17.419Z,53.44
2024-02-16T05:54:17.425Z,53.85
2024-02-16T05:55:17.416Z,53.85
2024-02-16T05:56:17.422Z,54.05
2024-02-16T05:57:17.409Z,54.05
2024-02-16T05:58:17.359Z,54.26
2024-02-16T05:59:17.353Z,54.03
2024-02-16T06:00:17.736Z,54.54
2024-02-16T06:01:17.393Z,54.85
2024-02-16T06:02:17.341Z,54.95
2024-02-16T06:03:17.354Z,55.87
2024-02-16T06:04:17.308Z,56.38
2024-02-16T06:05:17.296Z,56.27
2024-02-16T06:06:17.422Z,56.27
2024-02-16T06:07:17.494Z,56.07
2024-02-16T06:08:17.256Z,55.76
2024-02-16T06:09:17.286Z,55.46
2024-02-16T06:10:17.233Z,55.26
2024-02-16T06:11:17.264Z,55.87
2024-02-16T06:12:17.253Z,55.66
2024-02-16T06:13:17.205Z,54.97
2024-02-16T06:14:20.321Z,54.77
2024-02-16T06:15:17.206Z,54.57
2024-02-16T06:16:17.172Z,54.95
2024-02-16T06:17:17.140Z,56.27
2024-02-16T06:18:17.238Z,55.97
2024-02-16T06:19:17.221Z,56.89
2024-02-16T06:20:20.586Z,57.70
2024-02-16T06:21:17.143Z,57.70
2024-02-16T06:22:17.135Z,58.83
2024-02-16T06:23:17.051Z,59.44
2024-02-16T06:24:17.071Z,58.91
2024-02-16T06:25:17.142Z,59.52
2024-02-16T06:26:17.020Z,60.13
2024-02-16T06:27:17.060Z,60.03
2024-02-16T06:28:17.016Z,59.72
2024-02-16T06:29:16.997Z,61.25
2024-02-16T06:30:17.008Z,59.92
2024-02-16T06:31:16.976Z,59.82
2024-02-16T06:32:17.068Z,59.82
2024-02-16T06:33:17.081Z,59.31
2024-02-16T06:34:17.157Z,61.15
2024-02-16T06:35:16.959Z,60.23
2024-02-16T06:36:16.966Z,61.66
2024-02-16T06:37:16.910Z,61.87
2024-02-16T06:38:17.151Z,62.07
2024-02-16T06:39:16.946Z,60.94
2024-02-16T06:40:16.898Z,60.33
2024-02-16T06:41:16.861Z,59.82
2024-02-16T06:42:16.871Z,60.51
2024-02-16T06:43:16.862Z,61.43
2024-02-16T06:44:16.851Z,62.45
2024-02-16T06:45:16.899Z,62.85
2024-02-16T06:46:16.809Z,61.43
2024-02-16T06:47:16.810Z,61.22
2024-02-16T06:48:16.876Z,62.65
2024-02-16T06:49:16.827Z,61.02
2024-02-16T06:50:16.807Z,60.61
2024-02-16T06:51:16.780Z,61.63
2024-02-16T06:52:16.772Z,62.45
2024-02-16T06:53:16.748Z,63.85
2024-02-16T06:54:16.809Z,63.57
2024-02-16T06:55:16.827Z,64.08
2024-02-16T06:56:16.721Z,62.55
2024-02-16T06:57:16.741Z,61.94
2024-02-16T06:58:16.708Z,61.50
2024-02-16T06:59:16.677Z,61.94
2024-02-16T07:00:16.884Z,61.43
2024-02-16T07:01:16.710Z,61.83
2024-02-16T07:02:16.667Z,61.91
2024-02-16T07:03:16.721Z,61.80
2024-02-16T07:04:16.689Z,62.32
2024-02-16T07:05:16.610Z,62.11
2024-02-16T07:06:16.757Z,62.42
2024-02-16T07:07:16.806Z,63.13
2024-02-16T07:08:16.615Z,62.11
2024-02-16T07:09:16.986Z,63.10
2024-02-16T07:10:16.551Z,63.20
2024-02-16T07:11:16.624Z,62.90
2024-02-16T07:12:16.562Z,63.10
2024-02-16T07:13:17.276Z,63.31
2024-02-16T07:14:16.528Z,62.80
2024-02-16T07:15:16.553Z,63.41
2024-02-16T07:16:16.503Z,63.41
2024-02-16T07:17:16.515Z,63.61
2024-02-16T07:18:16.541Z,63.51
2024-02-16T07:19:16.633Z,63.51
2024-02-16T07:20:16.682Z,64.02
2024-02-16T07:21:16.502Z,64.84
2024-02-16T07:22:16.441Z,63.99
2024-02-16T07:23:17.891Z,63.68
2024-02-16T07:24:16.537Z,64.09
2024-02-16T07:25:16.426Z,63.48
2024-02-16T07:26:17.182Z,62.70
2024-02-16T07:27:16.436Z,62.08
2024-02-16T07:28:16.396Z,62.29
2024-02-16T07:29:16.361Z,63.10
2024-02-16T07:30:20.936Z,63.18
2024-02-16T07:31:16.392Z,63.58
2024-02-16T07:32:16.325Z,62.26
2024-02-16T07:33:16.510Z,62.16
2024-02-16T07:34:16.555Z,61.44
2024-02-16T07:35:16.305Z,61.24
2024-02-16T07:36:16.331Z,61.24
2024-02-16T07:37:16.329Z,60.25
2024-02-16T07:38:16.284Z,60.35
2024-02-16T07:39:16.284Z,59.81
2024-02-16T07:40:16.274Z,60.63
2024-02-16T07:41:16.257Z,60.22
2024-02-16T07:42:16.243Z,60.22
2024-02-16T07:43:16.217Z,59.41
2024-02-16T07:44:16.206Z,59.30
2024-02-16T07:45:16.247Z,59.71
2024-02-16T07:46:16.222Z,59.51
2024-02-16T07:47:16.189Z,59.00
2024-02-16T07:48:16.366Z,59.00
2024-02-16T07:49:16.346Z,59.20
2024-02-16T07:50:16.135Z,59.30
2024-02-16T07:51:16.152Z,59.91
2024-02-16T07:52:16.129Z,59.81
2024-02-16T07:53:16.228Z,59.71
2024-02-16T07:54:16.129Z,60.32
2024-02-16T07:55:16.093Z,60.60
2024-02-16T07:56:16.122Z,60.30
2024-02-16T07:57:16.129Z,60.50
2024-02-16T07:58:16.062Z,60.09
2024-02-16T07:59:16.077Z,60.19
2024-02-16T08:00:16.088Z,59.78
2024-02-16T08:01:16.036Z,59.38
2024-02-16T08:02:16.045Z,60.09
2024-02-16T08:03:16.094Z,59.28
2024-02-16T08:04:15.988Z,58.97
2024-02-16T08:05:16.003Z,59.99
2024-02-16T08:06:16.129Z,59.99
2024-02-16T08:07:16.016Z,59.17
2024-02-16T08:08:15.951Z,59.38
2024-02-16T08:09:16.168Z,57.75
2024-02-16T08:10:15.938Z,58.36
2024-02-16T08:11:15.981Z,58.26
2024-02-16T08:12:15.953Z,58.36
2024-02-16T08:13:15.926Z,59.68
2024-02-16T08:14:15.896Z,58.53
2024-02-16T08:15:15.919Z,58.64
2024-02-16T08:16:15.874Z,59.66
2024-02-16T08:17:19.987Z,60.37
2024-02-16T08:18:15.925Z,61.18
2024-02-16T08:19:15.930Z,60.27
2024-02-16T08:20:15.839Z,60.54
2024-02-16T08:21:15.901Z,60.24
2024-02-16T08:22:15.803Z,61.56
2024-02-16T08:23:15.850Z,62.27
2024-02-16T08:24:15.817Z,63.80
2024-02-16T08:25:15.774Z,64.79
2024-02-16T08:26:15.767Z,64.38
2024-02-16T08:27:16.893Z,65.30
2024-02-16T08:28:15.751Z,64.99
2024-02-16T08:29:15.753Z,64.99
2024-02-16T08:30:15.809Z,66.08
2024-02-16T08:31:15.713Z,66.49
2024-02-16T08:32:15.730Z,65.88
2024-02-16T08:33:15.937Z,67.60
2024-02-16T08:34:15.745Z,65.97
2024-02-16T08:35:15.914Z,67.80
2024-02-16T08:36:16.763Z,68.38
2024-02-16T08:37:15.651Z,68.79
2024-02-16T08:38:15.711Z,68.49
2024-02-16T08:39:15.704Z,68.08
2024-02-16T08:40:15.845Z,68.18
2024-02-16T08:41:15.729Z,68.79
2024-02-16T08:42:15.604Z,67.77
2024-02-16T08:43:15.609Z,67.77
2024-02-16T08:44:15.577Z,66.35
2024-02-16T08:45:15.618Z,67.36
2024-02-16T08:46:15.556Z,67.88
2024-02-16T08:47:15.545Z,67.64
2024-02-16T08:48:15.583Z,66.93
2024-02-16T08:49:15.588Z,68.66
2024-02-16T08:50:15.570Z,69.37
2024-02-16T08:51:15.572Z,69.98
2024-02-16T08:52:15.513Z,70.86
2024-02-16T08:53:15.494Z,70.15
2024-02-16T08:54:15.509Z,71.26
2024-02-16T08:55:15.460Z,70.25
2024-02-16T08:56:15.461Z,70.55
2024-02-16T08:57:15.462Z,71.47
2024-02-16T08:58:15.435Z,71.67
2024-02-16T08:59:15.413Z,72.28
2024-02-16T09:00:15.468Z,72.78
2024-02-16T09:01:15.422Z,73.29
2024-02-16T09:02:15.401Z,73.16
2024-02-16T09:03:15.438Z,73.46
2024-02-16T09:04:15.398Z,72.58
2024-02-16T09:05:15.415Z,73.70
2024-02-16T09:06:15.440Z,72.99
2024-02-16T09:07:15.425Z,73.39
2024-02-16T09:08:15.310Z,74.27
2024-02-16T09:09:15.403Z,72.75
2024-02-16T09:10:15.737Z,73.87
2024-02-16T09:11:15.386Z,73.57
2024-02-16T09:12:15.320Z,72.55
2024-02-16T09:13:15.284Z,74.27
2024-02-16T09:14:15.243Z,72.45
2024-02-16T09:15:15.284Z,73.66
2024-02-16T09:16:15.250Z,74.58
2024-02-16T09:17:15.254Z,72.34
2024-02-16T09:18:15.430Z,72.65
2024-02-16T09:19:15.332Z,72.85
2024-02-16T09:20:15.294Z,73.36
2024-02-16T09:21:15.250Z,73.87
2024-02-16T09:22:15.176Z,73.36
2024-02-16T09:23:15.155Z,73.97
2024-02-16T09:24:15.175Z,72.96
2024-02-16T09:25:15.143Z,74.58
2024-02-16T09:26:15.222Z,73.66
2024-02-16T09:27:15.157Z,74.98
2024-02-16T09:28:23.508Z,75.25
2024-02-16T09:29:15.109Z,73.33
2024-02-16T09:30:15.342Z,74.34
2024-02-16T09:31:15.078Z,73.83
2024-02-16T09:32:15.070Z,74.95
2024-02-16T09:33:15.146Z,74.85
2024-02-16T09:34:15.142Z,73.93
2024-02-16T09:35:15.166Z,74.85
2024-02-16T09:36:15.109Z,74.54
2024-02-16T09:37:15.019Z,74.95
2024-02-16T09:38:15.017Z,74.14
2024-02-16T09:39:15.043Z,75.05
2024-02-16T09:40:15.332Z,75.05
2024-02-16T09:41:14.984Z,73.33
2024-02-16T09:42:14.956Z,73.63
2024-02-16T09:43:14.981Z,74.04
2024-02-16T09:44:14.936Z,74.44
2024-02-16T09:45:14.962Z,73.02
2024-02-16T09:46:14.936Z,73.12
2024-02-16T09:47:14.912Z,73.22
2024-02-16T09:48:15.023Z,73.53
2024-02-16T09:49:14.983Z,73.63
2024-02-16T09:50:15.052Z,74.44
2024-02-16T09:51:14.890Z,73.12
2024-02-16T09:52:14.849Z,74.04
2024-02-16T09:53:14.851Z,73.43
2024-02-16T09:54:14.844Z,72.72
2024-02-16T09:55:14.859Z,72.92
2024-02-16T09:56:14.805Z,73.43
2024-02-16T09:57:14.802Z,73.12
2024-02-16T09:58:14.814Z,72.21
2024-02-16T09:59:14.776Z,73.22
2024-02-16T10:00:14.844Z,72.61
2024-02-16T10:01:14.789Z,72.11
2024-02-16T10:02:14.790Z,73.43
2024-02-16T10:03:14.757Z,72.61
2024-02-16T10:04:14.745Z,72.11
2024-02-16T10:05:14.779Z,71.20
2024-02-16T10:06:14.838Z,72.72
2024-02-16T10:07:14.971Z,71.70
2024-02-16T10:08:14.717Z,71.60
2024-02-16T10:09:14.683Z,71.70
2024-02-16T10:10:14.688Z,71.40
2024-02-16T10:11:14.647Z,69.98
2024-02-16T10:12:14.712Z,72.41
2024-02-16T10:13:14.627Z,73.02
2024-02-16T10:14:14.647Z,73.53
2024-02-16T10:15:14.745Z,74.00
2024-02-16T10:16:14.641Z,74.51
2024-02-16T10:17:14.606Z,74.00
2024-02-16T10:18:14.793Z,74.61
2024-02-16T10:19:16.728Z,73.39
2024-02-16T10:20:14.564Z,72.08
2024-02-16T10:21:14.654Z,73.49
2024-02-16T10:22:15.109Z,74.30
2024-02-16T10:23:14.521Z,72.89
2024-02-16T10:24:14.539Z,73.60
2024-02-16T10:25:14.669Z,73.80
2024-02-16T10:26:14.541Z,71.16
2024-02-16T10:27:14.522Z,73.29
2024-02-16T10:28:14.474Z,72.68
2024-02-16T10:29:14.457Z,72.68
2024-02-16T10:30:14.539Z,72.38
2024-02-16T10:31:14.539Z,72.78
2024-02-16T10:32:14.447Z,73.09
2024-02-16T10:33:14.874Z,72.99
2024-02-16T10:34:14.797Z,72.68
2024-02-16T10:35:14.589Z,72.55
2024-02-16T10:36:14.425Z,72.55
2024-02-16T10:37:14.396Z,71.97
2024-02-16T10:38:14.381Z,72.78
2024-02-16T10:39:14.425Z,72.04
2024-02-16T10:40:14.343Z,71.73
2024-02-16T10:41:14.452Z,71.84
2024-02-16T10:42:14.548Z,70.62
2024-02-16T10:43:14.439Z,70.62
2024-02-16T10:44:14.327Z,70.12
2024-02-16T10:45:14.557Z,71.23
2024-02-16T10:46:16.013Z,71.23
2024-02-16T10:47:14.513Z,68.90
2024-02-16T10:48:14.776Z,69.95
2024-02-16T10:49:14.549Z,69.92
2024-02-16T10:50:20.484Z,69.51
2024-02-16T10:51:14.580Z,69.20
2024-02-16T10:52:14.230Z,70.96
2024-02-16T10:53:14.486Z,69.84
2024-02-16T10:54:14.469Z,68.73
2024-02-16T10:55:14.450Z,69.24
2024-02-16T10:56:14.478Z,68.32
2024-02-16T10:57:14.305Z,67.11
2024-02-16T10:58:14.184Z,67.61
2024-02-16T10:59:14.147Z,67.31
2024-02-16T11:00:14.237Z,67.00
2024-02-16T11:01:14.292Z,66.91
2024-02-16T11:02:14.155Z,66.30
2024-02-16T11:03:14.182Z,66.80
2024-02-16T11:04:14.293Z,64.67
2024-02-16T11:05:14.136Z,65.08
2024-02-16T11:06:14.209Z,63.76
2024-02-16T11:07:14.361Z,64.17
2024-02-16T11:08:14.087Z,63.59
2024-02-16T11:09:14.146Z,64.40
2024-02-16T11:10:14.117Z,62.95
2024-02-16T11:11:14.212Z,63.29
2024-02-16T11:12:14.200Z,65.21
2024-02-16T11:13:14.024Z,62.68
2024-02-16T11:14:14.146Z,63.89
2024-02-16T11:15:14.108Z,64.50
2024-02-16T11:16:13.985Z,63.39
2024-02-16T11:17:13.970Z,61.76
2024-02-16T11:18:14.171Z,63.18
2024-02-16T11:19:14.073Z,62.78
2024-02-16T11:20:13.980Z,64.00
2024-02-16T11:21:14.046Z,64.00
2024-02-16T11:22:14.044Z,63.18
2024-02-16T11:23:13.882Z,64.50
2024-02-16T11:24:14.785Z,64.61
2024-02-16T11:25:14.076Z,65.21
2024-02-16T11:26:13.852Z,64.30
2024-02-16T11:27:13.927Z,65.21
2024-02-16T11:28:13.858Z,63.49
2024-02-16T11:29:13.856Z,63.49
2024-02-16T11:30:14.002Z,64.10
2024-02-16T11:31:13.860Z,62.88
2024-02-16T11:32:13.820Z,63.39
2024-02-16T11:33:13.932Z,62.88
2024-02-16T11:34:13.885Z,62.27
2024-02-16T11:35:13.928Z,62.98
2024-02-16T11:36:13.814Z,62.37
2024-02-16T11:37:13.745Z,61.36
2024-02-16T11:38:13.782Z,62.88
2024-02-16T11:39:13.795Z,62.68
2024-02-16T11:40:13.738Z,61.05
2024-02-16T11:41:13.710Z,61.25
2024-02-16T11:42:13.774Z,61.56
2024-02-16T11:43:13.701Z,61.25
2024-02-16T11:44:13.703Z,61.25
2024-02-16T11:45:13.737Z,60.24
2024-02-16T11:46:13.713Z,60.75
2024-02-16T11:47:13.773Z,62.07
2024-02-16T11:48:13.760Z,62.37
2024-02-16T11:49:13.873Z,62.07
2024-02-16T11:50:13.752Z,61.66
2024-02-16T11:51:13.693Z,60.24
2024-02-16T11:52:13.597Z,61.16
2024-02-16T11:53:13.593Z,60.24
2024-02-16T11:54:14.711Z,59.12
2024-02-16T11:55:13.573Z,60.04
2024-02-16T11:56:13.552Z,59.12
2024-02-16T11:57:13.706Z,57.71
2024-02-16T11:58:13.532Z,59.43
2024-02-16T11:59:13.552Z,58.52
2024-02-16T12:00:13.626Z,58.22
2024-02-16T12:01:13.787Z,58.22
2024-02-16T12:02:13.501Z,57.60
2024-02-16T12:03:13.505Z,57.30
2024-02-16T12:04:13.476Z,57.30
2024-02-16T12:05:13.515Z,56.79
2024-02-16T12:06:13.496Z,55.47
2024-02-16T12:07:13.493Z,55.30
2024-02-16T12:08:13.483Z,52.97
2024-02-16T12:09:13.438Z,52.05
2024-02-16T12:10:13.421Z,50.63
2024-02-16T12:11:13.423Z,46.88
2024-02-16T12:12:13.459Z,43.23
2024-02-16T12:13:13.428Z,41.50
2024-02-16T12:14:13.387Z,36.22
2024-02-16T12:15:13.446Z,32.77
2024-02-16T12:16:13.363Z,31.16
2024-02-16T12:17:13.329Z,25.78
2024-02-16T12:18:13.471Z,24.58
2024-02-16T12:19:13.532Z,19.09
2024-02-16T12:20:13.383Z,16.14
2024-02-16T12:21:13.320Z,15.44
2024-02-16T12:22:13.298Z,12.70
2024-02-16T12:23:13.292Z,13.31
2024-02-16T12:24:13.283Z,13.51
2024-02-16T12:25:13.268Z,10.97
2024-02-16T12:26:13.269Z,10.46
2024-02-16T12:27:13.261Z,8.12
2024-02-16T12:28:13.235Z,7.21
2024-02-16T12:29:13.215Z,4.67
2024-02-16T12:30:13.334Z,3.45
2024-02-16T12:31:13.189Z,2.13
2024-02-16T12:32:13.237Z,0.00
2024-02-16T12:33:13.333Z,0.00
2024-02-16T12:34:13.285Z,0.00
2024-02-16T12:35:13.378Z,0.00
2024-02-16T12:36:13.172Z,0.00
2024-02-16T12:37:13.167Z,0.00
2024-02-16T12:38:13.194Z,0.00
2024-02-16T12:39:13.139Z,0.00
2024-02-16T12:40:13.122Z,0.00
2024-02-16T12:41:13.107Z,0.00
2024-02-16T12:42:13.165Z,0.00
2024-02-16T12:43:13.089Z,0.00
2024-02-16T12:44:13.089Z,0.00
2024-02-16T12:45:13.156Z,0.00
2024-02-16T12:46:13.053Z,0.00
2024-02-16T12:47:13.647Z,0.00
2024-02-16T12:48:13.192Z,0.00
2024-02-16T12:49:13.201Z,0.00
2024-02-16T12:50:13.225Z,0.00
2024-02-16T12:51:13.039Z,0.00
2024-02-16T12:52:13.018Z,0.00
2024-02-16T12:53:13.039Z,0.00